Neely, Mississippi
Current Conditions -  °F | °C
As of 2:53 PM on Thursday 27 Nov 2014 (Local Time) from KHBG Reporting Station
Clear Clear  
Wind Chill: 55°   Ceiling: Unl
Heat Index: 55°   Visibility: 10mi
Dew Point: 30°   Wind: 12mph
Humidity: 38%   Direction: 350°N
Pressure: 30.41"   Gusts: NA
Location:  31.17°N, 88.75°W
Report Text: KHBG 272053Z AUTO 35010KT 10SM CLR 13/M01 A3041 RMK AO2 SLP296 T01281011 56006
Loading
Personal Weather Stations






























Interactive Weather Map New forecast layout! Learn more

10-Day Weather Forecast

Advertisements
Track Severe Weather on mobile